sensor_id;sensor_type;location;lat;lon;timestamp;P1;durP1;ratioP1;P2;durP2;ratioP2
49193;SDS011;35029;50.804;12.866;2023-08-31T00:01:39;3.83;;;1.95;;
49193;SDS011;35029;50.804;12.866;2023-08-31T00:04:05;3.28;;;2.58;;
49193;SDS011;35029;50.804;12.866;2023-08-31T00:06:36;3.63;;;2.70;;
49193;SDS011;35029;50.804;12.866;2023-08-31T00:09:01;2.85;;;2.30;;
49193;SDS011;35029;50.804;12.866;2023-08-31T00:11:29;2.72;;;2.50;;
49193;SDS011;35029;50.804;12.866;2023-08-31T00:13:55;2.22;;;2.03;;
49193;SDS011;35029;50.804;12.866;2023-08-31T00:16:23;3.88;;;2.10;;
49193;SDS011;35029;50.804;12.866;2023-08-31T00:18:50;2.72;;;2.47;;
49193;SDS011;35029;50.804;12.866;2023-08-31T00:21:16;3.60;;;2.25;;
49193;SDS011;35029;50.804;12.866;2023-08-31T00:23:41;2.45;;;2.25;;
49193;SDS011;35029;50.804;12.866;2023-08-31T00:26:07;2.60;;;2.40;;
49193;SDS011;35029;50.804;12.866;2023-08-31T00:28:34;3.45;;;2.85;;
49193;SDS011;35029;50.804;12.866;2023-08-31T00:31:01;3.28;;;2.97;;
49193;SDS011;35029;50.804;12.866;2023-08-31T00:33:29;7.07;;;3.17;;
49193;SDS011;35029;50.804;12.866;2023-08-31T00:35:56;3.75;;;3.05;;
49193;SDS011;35029;50.804;12.866;2023-08-31T00:38:26;4.88;;;2.88;;
49193;SDS011;35029;50.804;12.866;2023-08-31T00:40:52;2.78;;;2.47;;
49193;SDS011;35029;50.804;12.866;2023-08-31T00:43:19;3.33;;;2.60;;
49193;SDS011;35029;50.804;12.866;2023-08-31T00:45:46;2.97;;;2.53;;
49193;SDS011;35029;50.804;12.866;2023-08-31T00:48:14;1.92;;;1.80;;
49193;SDS011;35029;50.804;12.866;2023-08-31T00:50:45;2.30;;;1.83;;
49193;SDS011;35029;50.804;12.866;2023-08-31T00:53:11;2.90;;;2.33;;
49193;SDS011;35029;50.804;12.866;2023-08-31T00:55:37;2.20;;;2.00;;
49193;SDS011;35029;50.804;12.866;2023-08-31T00:58:05;2.47;;;2.28;;
49193;SDS011;35029;50.804;12.866;2023-08-31T01:03:12;5.15;;;2.00;;
49193;SDS011;35029;50.804;12.866;2023-08-31T01:08:43;1.80;;;1.70;;
49193;SDS011;35029;50.804;12.866;2023-08-31T01:14:07;1.70;;;1.60;;
49193;SDS011;35029;50.804;12.866;2023-08-31T01:16:36;2.90;;;2.00;;
49193;SDS011;35029;50.804;12.866;2023-08-31T01:19:07;2.35;;;1.80;;
49193;SDS011;35029;50.804;12.866;2023-08-31T01:21:42;2.38;;;2.10;;
49193;SDS011;35029;50.804;12.866;2023-08-31T01:24:12;4.95;;;2.10;;
49193;SDS011;35029;50.804;12.866;2023-08-31T01:26:38;2.53;;;1.83;;
49193;SDS011;35029;50.804;12.866;2023-08-31T01:29:06;2.53;;;2.33;;
49193;SDS011;35029;50.804;12.866;2023-08-31T01:31:32;2.50;;;2.30;;
49193;SDS011;35029;50.804;12.866;2023-08-31T01:33:57;3.95;;;2.20;;
49193;SDS011;35029;50.804;12.866;2023-08-31T01:36:27;3.47;;;2.35;;
49193;SDS011;35029;50.804;12.866;2023-08-31T01:39:03;3.65;;;2.58;;
49193;SDS011;35029;50.804;12.866;2023-08-31T01:41:36;2.63;;;2.42;;
49193;SDS011;35029;50.804;12.866;2023-08-31T01:44:08;3.38;;;3.03;;
49193;SDS011;35029;50.804;12.866;2023-08-31T01:46:39;2.90;;;2.60;;
49193;SDS011;35029;50.804;12.866;2023-08-31T01:49:05;2.95;;;2.65;;
49193;SDS011;35029;50.804;12.866;2023-08-31T01:51:31;2.20;;;2.03;;
49193;SDS011;35029;50.804;12.866;2023-08-31T01:53:56;6.03;;;3.15;;
49193;SDS011;35029;50.804;12.866;2023-08-31T01:56:23;2.83;;;2.40;;
49193;SDS011;35029;50.804;12.866;2023-08-31T01:58:49;3.03;;;2.60;;
49193;SDS011;35029;50.804;12.866;2023-08-31T02:01:15;2.75;;;2.33;;
49193;SDS011;35029;50.804;12.866;2023-08-31T02:03:40;2.58;;;2.33;;
49193;SDS011;35029;50.804;12.866;2023-08-31T02:06:06;3.17;;;2.80;;
49193;SDS011;35029;50.804;12.866;2023-08-31T02:08:32;2.80;;;2.60;;
49193;SDS011;35029;50.804;12.866;2023-08-31T02:10:57;2.58;;;2.38;;
49193;SDS011;35029;50.804;12.866;2023-08-31T02:13:23;3.10;;;2.85;;
49193;SDS011;35029;50.804;12.866;2023-08-31T02:15:52;4.25;;;2.35;;
49193;SDS011;35029;50.804;12.866;2023-08-31T02:18:19;2.70;;;2.50;;
49193;SDS011;35029;50.804;12.866;2023-08-31T02:20:44;3.10;;;2.80;;
49193;SDS011;35029;50.804;12.866;2023-08-31T02:23:10;3.83;;;2.50;;
49193;SDS011;35029;50.804;12.866;2023-08-31T02:25:37;3.10;;;2.83;;
49193;SDS011;35029;50.804;12.866;2023-08-31T02:28:03;2.50;;;2.28;;
49193;SDS011;35029;50.804;12.866;2023-08-31T02:30:29;4.03;;;3.08;;
49193;SDS011;35029;50.804;12.866;2023-08-31T02:32:56;3.70;;;3.15;;
49193;SDS011;35029;50.804;12.866;2023-08-31T02:35:21;4.32;;;3.13;;
49193;SDS011;35029;50.804;12.866;2023-08-31T02:37:47;5.07;;;3.17;;
49193;SDS011;35029;50.804;12.866;2023-08-31T02:40:12;3.25;;;2.92;;
49193;SDS011;35029;50.804;12.866;2023-08-31T02:42:38;3.35;;;2.90;;
49193;SDS011;35029;50.804;12.866;2023-08-31T02:45:04;3.58;;;3.28;;
49193;SDS011;35029;50.804;12.866;2023-08-31T02:47:30;3.75;;;3.05;;
49193;SDS011;35029;50.804;12.866;2023-08-31T02:49:55;4.53;;;3.30;;
49193;SDS011;35029;50.804;12.866;2023-08-31T02:52:21;4.50;;;3.42;;
49193;SDS011;35029;50.804;12.866;2023-08-31T02:54:47;3.97;;;3.50;;
49193;SDS011;35029;50.804;12.866;2023-08-31T02:57:12;4.18;;;3.20;;
49193;SDS011;35029;50.804;12.866;2023-08-31T02:59:38;3.38;;;3.00;;
49193;SDS011;35029;50.804;12.866;2023-08-31T03:02:04;9.65;;;3.20;;
49193;SDS011;35029;50.804;12.866;2023-08-31T03:04:29;3.20;;;2.90;;
49193;SDS011;35029;50.804;12.866;2023-08-31T03:06:56;3.45;;;2.97;;
49193;SDS011;35029;50.804;12.866;2023-08-31T03:09:22;3.80;;;3.05;;
49193;SDS011;35029;50.804;12.866;2023-08-31T03:11:47;3.58;;;3.25;;
49193;SDS011;35029;50.804;12.866;2023-08-31T03:14:13;4.10;;;2.78;;
49193;SDS011;35029;50.804;12.866;2023-08-31T03:16:40;3.00;;;2.70;;
49193;SDS011;35029;50.804;12.866;2023-08-31T03:19:06;2.50;;;2.20;;
49193;SDS011;35029;50.804;12.866;2023-08-31T03:21:32;2.97;;;2.67;;
49193;SDS011;35029;50.804;12.866;2023-08-31T03:23:59;3.03;;;2.63;;
49193;SDS011;35029;50.804;12.866;2023-08-31T03:26:24;3.17;;;2.88;;
49193;SDS011;35029;50.804;12.866;2023-08-31T03:28:50;4.65;;;2.90;;
49193;SDS011;35029;50.804;12.866;2023-08-31T03:31:16;2.95;;;2.63;;
49193;SDS011;35029;50.804;12.866;2023-08-31T03:33:41;4.50;;;3.15;;
49193;SDS011;35029;50.804;12.866;2023-08-31T03:36:08;3.05;;;2.75;;
49193;SDS011;35029;50.804;12.866;2023-08-31T03:38:33;5.55;;;2.45;;
49193;SDS011;35029;50.804;12.866;2023-08-31T03:41:04;5.23;;;2.50;;
49193;SDS011;35029;50.804;12.866;2023-08-31T03:43:31;2.53;;;2.33;;
49193;SDS011;35029;50.804;12.866;2023-08-31T03:45:57;3.35;;;2.50;;
49193;SDS011;35029;50.804;12.866;2023-08-31T03:48:23;2.90;;;2.60;;
49193;SDS011;35029;50.804;12.866;2023-08-31T03:50:53;2.95;;;2.65;;
49193;SDS011;35029;50.804;12.866;2023-08-31T03:53:21;3.53;;;2.38;;
49193;SDS011;35029;50.804;12.866;2023-08-31T03:55:47;3.30;;;2.65;;
49193;SDS011;35029;50.804;12.866;2023-08-31T03:58:15;3.25;;;2.95;;
49193;SDS011;35029;50.804;12.866;2023-08-31T04:00:45;2.83;;;2.40;;
49193;SDS011;35029;50.804;12.866;2023-08-31T04:03:14;3.55;;;2.55;;
49193;SDS011;35029;50.804;12.866;2023-08-31T04:05:40;3.67;;;2.63;;
49193;SDS011;35029;50.804;12.866;2023-08-31T04:08:05;4.32;;;2.33;;
49193;SDS011;35029;50.804;12.866;2023-08-31T04:10:33;2.90;;;2.30;;
49193;SDS011;35029;50.804;12.866;2023-08-31T04:12:59;5.25;;;3.00;;
49193;SDS011;35029;50.804;12.866;2023-08-31T04:15:27;2.70;;;2.25;;
49193;SDS011;35029;50.804;12.866;2023-08-31T04:17:52;2.88;;;2.63;;
49193;SDS011;35029;50.804;12.866;2023-08-31T04:20:18;2.53;;;2.33;;
49193;SDS011;35029;50.804;12.866;2023-08-31T04:22:43;4.50;;;2.60;;
49193;SDS011;35029;50.804;12.866;2023-08-31T04:25:09;2.80;;;2.40;;
49193;SDS011;35029;50.804;12.866;2023-08-31T04:27:35;2.97;;;2.67;;
49193;SDS011;35029;50.804;12.866;2023-08-31T04:30:04;3.33;;;2.63;;
49193;SDS011;35029;50.804;12.866;2023-08-31T04:32:32;4.45;;;2.60;;
49193;SDS011;35029;50.804;12.866;2023-08-31T04:34:57;2.55;;;2.35;;
49193;SDS011;35029;50.804;12.866;2023-08-31T04:37:23;3.28;;;2.40;;
49193;SDS011;35029;50.804;12.866;2023-08-31T04:39:49;2.90;;;2.60;;
49193;SDS011;35029;50.804;12.866;2023-08-31T04:42:14;3.35;;;2.25;;
49193;SDS011;35029;50.804;12.866;2023-08-31T04:44:42;5.18;;;2.28;;
49193;SDS011;35029;50.804;12.866;2023-08-31T04:47:07;3.15;;;2.50;;
49193;SDS011;35029;50.804;12.866;2023-08-31T04:49:33;3.25;;;2.50;;
49193;SDS011;35029;50.804;12.866;2023-08-31T04:51:59;7.30;;;3.13;;
49193;SDS011;35029;50.804;12.866;2023-08-31T04:54:24;4.10;;;2.80;;
49193;SDS011;35029;50.804;12.866;2023-08-31T04:56:50;4.63;;;3.38;;
49193;SDS011;35029;50.804;12.866;2023-08-31T04:59:16;3.65;;;2.60;;
49193;SDS011;35029;50.804;12.866;2023-08-31T05:01:41;2.95;;;2.45;;
49193;SDS011;35029;50.804;12.866;2023-08-31T05:04:07;3.00;;;2.70;;
49193;SDS011;35029;50.804;12.866;2023-08-31T05:06:32;3.00;;;2.60;;
49193;SDS011;35029;50.804;12.866;2023-08-31T05:08:58;3.05;;;2.58;;
49193;SDS011;35029;50.804;12.866;2023-08-31T05:11:23;2.42;;;2.22;;
49193;SDS011;35029;50.804;12.866;2023-08-31T05:13:49;4.25;;;3.17;;
49193;SDS011;35029;50.804;12.866;2023-08-31T05:16:14;6.15;;;3.78;;
49193;SDS011;35029;50.804;12.866;2023-08-31T05:18:40;7.07;;;2.70;;
49193;SDS011;35029;50.804;12.866;2023-08-31T05:21:06;3.20;;;2.35;;
49193;SDS011;35029;50.804;12.866;2023-08-31T05:23:32;2.95;;;2.58;;
49193;SDS011;35029;50.804;12.866;2023-08-31T05:25:57;4.82;;;2.90;;
49193;SDS011;35029;50.804;12.866;2023-08-31T05:28:23;3.78;;;2.53;;
49193;SDS011;35029;50.804;12.866;2023-08-31T05:30:49;2.90;;;2.60;;
49193;SDS011;35029;50.804;12.866;2023-08-31T05:33:16;3.03;;;2.50;;
49193;SDS011;35029;50.804;12.866;2023-08-31T05:35:42;3.75;;;2.55;;
49193;SDS011;35029;50.804;12.866;2023-08-31T05:38:08;3.97;;;2.45;;
49193;SDS011;35029;50.804;12.866;2023-08-31T05:40:34;2.70;;;2.50;;
49193;SDS011;35029;50.804;12.866;2023-08-31T05:42:59;3.10;;;2.20;;
49193;SDS011;35029;50.804;12.866;2023-08-31T05:45:25;4.40;;;2.50;;
49193;SDS011;35029;50.804;12.866;2023-08-31T05:47:50;3.63;;;2.30;;
49193;SDS011;35029;50.804;12.866;2023-08-31T05:50:16;4.03;;;2.60;;
49193;SDS011;35029;50.804;12.866;2023-08-31T05:52:41;2.80;;;2.40;;
49193;SDS011;35029;50.804;12.866;2023-08-31T05:55:10;2.63;;;2.42;;
49193;SDS011;35029;50.804;12.866;2023-08-31T05:57:35;4.82;;;2.47;;
49193;SDS011;35029;50.804;12.866;2023-08-31T06:00:03;4.03;;;2.80;;
49193;SDS011;35029;50.804;12.866;2023-08-31T06:02:37;2.97;;;2.67;;
49193;SDS011;35029;50.804;12.866;2023-08-31T06:05:03;4.18;;;3.33;;
49193;SDS011;35029;50.804;12.866;2023-08-31T06:07:29;2.85;;;2.58;;
49193;SDS011;35029;50.804;12.866;2023-08-31T06:09:55;3.75;;;2.67;;
49193;SDS011;35029;50.804;12.866;2023-08-31T06:12:21;4.07;;;3.08;;
49193;SDS011;35029;50.804;12.866;2023-08-31T06:14:47;3.28;;;2.75;;
49193;SDS011;35029;50.804;12.866;2023-08-31T06:17:13;4.82;;;3.22;;
49193;SDS011;35029;50.804;12.866;2023-08-31T06:19:40;4.40;;;3.28;;
49193;SDS011;35029;50.804;12.866;2023-08-31T06:22:06;4.43;;;3.10;;
49193;SDS011;35029;50.804;12.866;2023-08-31T06:24:32;5.43;;;3.47;;
49193;SDS011;35029;50.804;12.866;2023-08-31T06:26:59;3.53;;;3.17;;
49193;SDS011;35029;50.804;12.866;2023-08-31T06:29:25;6.43;;;3.00;;
49193;SDS011;35029;50.804;12.866;2023-08-31T06:31:51;4.90;;;2.80;;
49193;SDS011;35029;50.804;12.866;2023-08-31T06:34:16;4.00;;;3.25;;
49193;SDS011;35029;50.804;12.866;2023-08-31T06:36:42;3.72;;;3.33;;
49193;SDS011;35029;50.804;12.866;2023-08-31T06:39:09;5.43;;;3.45;;
49193;SDS011;35029;50.804;12.866;2023-08-31T06:41:34;4.28;;;2.90;;
49193;SDS011;35029;50.804;12.866;2023-08-31T06:44:01;6.07;;;3.40;;
49193;SDS011;35029;50.804;12.866;2023-08-31T06:46:29;8.05;;;3.88;;
49193;SDS011;35029;50.804;12.866;2023-08-31T06:48:55;3.78;;;2.97;;
49193;SDS011;35029;50.804;12.866;2023-08-31T06:51:20;7.20;;;3.28;;
49193;SDS011;35029;50.804;12.866;2023-08-31T06:53:46;5.18;;;3.15;;
49193;SDS011;35029;50.804;12.866;2023-08-31T06:56:11;3.63;;;2.85;;
49193;SDS011;35029;50.804;12.866;2023-08-31T06:58:37;4.13;;;3.28;;
49193;SDS011;35029;50.804;12.866;2023-08-31T07:01:05;7.47;;;3.60;;
49193;SDS011;35029;50.804;12.866;2023-08-31T07:03:31;6.28;;;3.38;;
49193;SDS011;35029;50.804;12.866;2023-08-31T07:05:56;5.00;;;3.40;;
49193;SDS011;35029;50.804;12.866;2023-08-31T07:08:22;3.60;;;2.97;;
49193;SDS011;35029;50.804;12.866;2023-08-31T07:10:49;3.90;;;3.05;;
49193;SDS011;35029;50.804;12.866;2023-08-31T07:13:16;4.45;;;3.58;;
49193;SDS011;35029;50.804;12.866;2023-08-31T07:15:48;7.20;;;3.20;;
49193;SDS011;35029;50.804;12.866;2023-08-31T07:18:15;4.60;;;3.30;;
49193;SDS011;35029;50.804;12.866;2023-08-31T07:20:41;5.55;;;3.22;;
49193;SDS011;35029;50.804;12.866;2023-08-31T07:23:06;6.93;;;3.08;;
49193;SDS011;35029;50.804;12.866;2023-08-31T07:25:32;4.43;;;3.40;;
49193;SDS011;35029;50.804;12.866;2023-08-31T07:27:58;6.05;;;3.20;;
49193;SDS011;35029;50.804;12.866;2023-08-31T07:30:24;5.88;;;3.38;;
49193;SDS011;35029;50.804;12.866;2023-08-31T07:32:50;4.55;;;3.10;;
49193;SDS011;35029;50.804;12.866;2023-08-31T07:35:15;5.32;;;3.53;;
49193;SDS011;35029;50.804;12.866;2023-08-31T07:37:41;6.35;;;3.45;;
49193;SDS011;35029;50.804;12.866;2023-08-31T07:40:06;5.50;;;3.30;;
49193;SDS011;35029;50.804;12.866;2023-08-31T07:42:35;4.20;;;3.25;;
49193;SDS011;35029;50.804;12.866;2023-08-31T07:45:00;5.88;;;3.35;;
49193;SDS011;35029;50.804;12.866;2023-08-31T07:47:26;6.22;;;3.40;;
49193;SDS011;35029;50.804;12.866;2023-08-31T07:49:51;4.80;;;3.40;;
49193;SDS011;35029;50.804;12.866;2023-08-31T07:52:17;4.75;;;3.13;;
49193;SDS011;35029;50.804;12.866;2023-08-31T07:54:42;5.72;;;3.17;;
49193;SDS011;35029;50.804;12.866;2023-08-31T07:57:08;6.40;;;3.60;;
49193;SDS011;35029;50.804;12.866;2023-08-31T07:59:33;5.93;;;3.60;;
49193;SDS011;35029;50.804;12.866;2023-08-31T08:01:59;4.57;;;2.60;;
49193;SDS011;35029;50.804;12.866;2023-08-31T08:04:24;6.18;;;3.20;;
49193;SDS011;35029;50.804;12.866;2023-08-31T08:06:51;4.63;;;2.97;;
49193;SDS011;35029;50.804;12.866;2023-08-31T08:09:16;3.83;;;2.40;;
49193;SDS011;35029;50.804;12.866;2023-08-31T08:11:42;5.45;;;3.35;;
49193;SDS011;35029;50.804;12.866;2023-08-31T08:14:08;3.35;;;2.58;;
49193;SDS011;35029;50.804;12.866;2023-08-31T08:16:34;4.25;;;2.63;;
49193;SDS011;35029;50.804;12.866;2023-08-31T08:19:01;4.32;;;2.95;;
49193;SDS011;35029;50.804;12.866;2023-08-31T08:21:26;6.30;;;3.25;;
49193;SDS011;35029;50.804;12.866;2023-08-31T08:23:52;5.43;;;2.60;;
49193;SDS011;35029;50.804;12.866;2023-08-31T08:26:18;5.95;;;2.60;;
49193;SDS011;35029;50.804;12.866;2023-08-31T08:28:43;3.92;;;3.05;;
49193;SDS011;35029;50.804;12.866;2023-08-31T08:31:09;5.25;;;2.60;;
49193;SDS011;35029;50.804;12.866;2023-08-31T08:33:35;5.18;;;3.17;;
49193;SDS011;35029;50.804;12.866;2023-08-31T08:36:00;2.85;;;2.38;;
49193;SDS011;35029;50.804;12.866;2023-08-31T08:38:26;6.28;;;2.50;;
49193;SDS011;35029;50.804;12.866;2023-08-31T08:40:51;3.83;;;2.40;;
49193;SDS011;35029;50.804;12.866;2023-08-31T08:43:18;5.57;;;2.85;;
49193;SDS011;35029;50.804;12.866;2023-08-31T08:45:52;4.15;;;2.17;;
49193;SDS011;35029;50.804;12.866;2023-08-31T08:48:18;3.55;;;2.67;;
49193;SDS011;35029;50.804;12.866;2023-08-31T08:50:45;5.00;;;2.60;;
49193;SDS011;35029;50.804;12.866;2023-08-31T08:53:11;4.25;;;2.38;;
49193;SDS011;35029;50.804;12.866;2023-08-31T08:55:40;3.35;;;2.83;;
49193;SDS011;35029;50.804;12.866;2023-08-31T08:58:06;2.88;;;2.20;;
49193;SDS011;35029;50.804;12.866;2023-08-31T09:00:32;2.75;;;2.13;;
49193;SDS011;35029;50.804;12.866;2023-08-31T09:02:59;6.38;;;2.83;;
49193;SDS011;35029;50.804;12.866;2023-08-31T09:05:26;3.65;;;2.33;;
49193;SDS011;35029;50.804;12.866;2023-08-31T09:08:07;4.90;;;2.30;;
49193;SDS011;35029;50.804;12.866;2023-08-31T09:10:41;5.90;;;2.92;;
49193;SDS011;35029;50.804;12.866;2023-08-31T09:13:09;3.83;;;2.30;;
49193;SDS011;35029;50.804;12.866;2023-08-31T09:18:22;10.07;;;3.38;;
49193;SDS011;35029;50.804;12.866;2023-08-31T09:20:52;2.72;;;2.30;;
49193;SDS011;35029;50.804;12.866;2023-08-31T09:23:19;3.60;;;2.40;;
49193;SDS011;35029;50.804;12.866;2023-08-31T09:25:49;3.55;;;2.53;;
49193;SDS011;35029;50.804;12.866;2023-08-31T09:28:16;4.00;;;2.58;;
49193;SDS011;35029;50.804;12.866;2023-08-31T09:30:45;5.85;;;3.15;;
49193;SDS011;35029;50.804;12.866;2023-08-31T09:33:15;4.05;;;2.28;;
49193;SDS011;35029;50.804;12.866;2023-08-31T09:35:47;4.22;;;2.80;;
49193;SDS011;35029;50.804;12.866;2023-08-31T09:38:17;4.93;;;2.40;;
49193;SDS011;35029;50.804;12.866;2023-08-31T09:40:43;3.70;;;2.55;;
49193;SDS011;35029;50.804;12.866;2023-08-31T09:43:09;5.28;;;2.75;;
49193;SDS011;35029;50.804;12.866;2023-08-31T09:45:34;9.55;;;2.13;;
49193;SDS011;35029;50.804;12.866;2023-08-31T09:48:02;4.72;;;2.42;;
49193;SDS011;35029;50.804;12.866;2023-08-31T09:50:29;2.97;;;2.42;;
49193;SDS011;35029;50.804;12.866;2023-08-31T09:52:56;2.92;;;2.00;;
49193;SDS011;35029;50.804;12.866;2023-08-31T09:55:27;2.10;;;1.90;;
49193;SDS011;35029;50.804;12.866;2023-08-31T09:57:54;3.47;;;2.00;;
49193;SDS011;35029;50.804;12.866;2023-08-31T10:00:27;5.00;;;2.20;;
49193;SDS011;35029;50.804;12.866;2023-08-31T10:03:00;8.90;;;2.03;;
49193;SDS011;35029;50.804;12.866;2023-08-31T10:05:28;4.30;;;2.30;;
49193;SDS011;35029;50.804;12.866;2023-08-31T10:07:54;4.55;;;2.20;;
49193;SDS011;35029;50.804;12.866;2023-08-31T10:10:21;2.22;;;2.03;;
49193;SDS011;35029;50.804;12.866;2023-08-31T10:12:50;3.25;;;1.95;;
49193;SDS011;35029;50.804;12.866;2023-08-31T10:15:17;2.90;;;1.90;;
49193;SDS011;35029;50.804;12.866;2023-08-31T10:17:43;3.85;;;1.67;;
49193;SDS011;35029;50.804;12.866;2023-08-31T10:20:10;3.45;;;2.00;;
49193;SDS011;35029;50.804;12.866;2023-08-31T10:22:38;5.63;;;2.20;;
49193;SDS011;35029;50.804;12.866;2023-08-31T10:25:05;2.10;;;1.70;;
49193;SDS011;35029;50.804;12.866;2023-08-31T10:27:38;4.82;;;2.20;;
49193;SDS011;35029;50.804;12.866;2023-08-31T10:30:12;11.77;;;3.20;;
49193;SDS011;35029;50.804;12.866;2023-08-31T10:33:02;6.00;;;2.72;;
49193;SDS011;35029;50.804;12.866;2023-08-31T10:35:52;9.82;;;3.88;;
49193;SDS011;35029;50.804;12.866;2023-08-31T10:38:27;4.28;;;2.55;;
49193;SDS011;35029;50.804;12.866;2023-08-31T10:48:51;4.03;;;1.92;;
49193;SDS011;35029;50.804;12.866;2023-08-31T10:51:17;3.58;;;1.88;;
49193;SDS011;35029;50.804;12.866;2023-08-31T10:53:46;2.85;;;1.90;;
49193;SDS011;35029;50.804;12.866;2023-08-31T10:56:12;6.25;;;2.55;;
49193;SDS011;35029;50.804;12.866;2023-08-31T10:58:37;5.07;;;1.95;;
49193;SDS011;35029;50.804;12.866;2023-08-31T11:01:03;3.00;;;1.80;;
49193;SDS011;35029;50.804;12.866;2023-08-31T11:03:32;3.28;;;2.05;;
49193;SDS011;35029;50.804;12.866;2023-08-31T11:05:57;3.42;;;2.40;;
49193;SDS011;35029;50.804;12.866;2023-08-31T11:08:23;4.38;;;2.70;;
49193;SDS011;35029;50.804;12.866;2023-08-31T11:10:49;3.58;;;2.50;;
49193;SDS011;35029;50.804;12.866;2023-08-31T11:13:16;3.42;;;2.58;;
49193;SDS011;35029;50.804;12.866;2023-08-31T11:15:46;5.47;;;3.67;;
49193;SDS011;35029;50.804;12.866;2023-08-31T11:18:12;6.47;;;2.80;;
49193;SDS011;35029;50.804;12.866;2023-08-31T11:20:42;4.80;;;2.87;;
49193;SDS011;35029;50.804;12.866;2023-08-31T11:23:09;6.47;;;2.72;;
49193;SDS011;35029;50.804;12.866;2023-08-31T11:25:35;3.60;;;3.05;;
49193;SDS011;35029;50.804;12.866;2023-08-31T11:28:05;4.68;;;2.58;;
49193;SDS011;35029;50.804;12.866;2023-08-31T11:30:34;5.18;;;3.08;;
49193;SDS011;35029;50.804;12.866;2023-08-31T11:33:05;6.25;;;2.83;;
49193;SDS011;35029;50.804;12.866;2023-08-31T11:35:33;9.60;;;2.75;;
49193;SDS011;35029;50.804;12.866;2023-08-31T11:38:00;4.35;;;2.28;;
49193;SDS011;35029;50.804;12.866;2023-08-31T11:40:26;3.28;;;2.40;;
49193;SDS011;35029;50.804;12.866;2023-08-31T11:42:52;2.80;;;2.03;;
49193;SDS011;35029;50.804;12.866;2023-08-31T11:45:18;5.22;;;2.10;;
49193;SDS011;35029;50.804;12.866;2023-08-31T11:47:45;3.60;;;2.22;;
49193;SDS011;35029;50.804;12.866;2023-08-31T11:50:13;4.22;;;2.22;;
49193;SDS011;35029;50.804;12.866;2023-08-31T11:52:41;4.70;;;1.58;;
49193;SDS011;35029;50.804;12.866;2023-08-31T11:55:11;3.33;;;1.73;;
49193;SDS011;35029;50.804;12.866;2023-08-31T11:57:37;5.68;;;2.05;;
49193;SDS011;35029;50.804;12.866;2023-08-31T12:00:03;4.15;;;1.58;;
49193;SDS011;35029;50.804;12.866;2023-08-31T12:02:36;6.05;;;1.70;;
49193;SDS011;35029;50.804;12.866;2023-08-31T12:05:02;3.88;;;1.80;;
49193;SDS011;35029;50.804;12.866;2023-08-31T12:07:30;4.18;;;1.70;;
49193;SDS011;35029;50.804;12.866;2023-08-31T12:10:02;3.13;;;1.60;;
49193;SDS011;35029;50.804;12.866;2023-08-31T12:12:28;5.93;;;1.92;;
49193;SDS011;35029;50.804;12.866;2023-08-31T12:14:55;2.17;;;1.60;;
49193;SDS011;35029;50.804;12.866;2023-08-31T12:17:23;2.10;;;1.52;;
49193;SDS011;35029;50.804;12.866;2023-08-31T12:19:48;2.13;;;1.67;;
49193;SDS011;35029;50.804;12.866;2023-08-31T12:22:14;3.10;;;1.67;;
49193;SDS011;35029;50.804;12.866;2023-08-31T12:24:40;5.43;;;2.28;;
49193;SDS011;35029;50.804;12.866;2023-08-31T12:27:07;2.75;;;1.98;;
49193;SDS011;35029;50.804;12.866;2023-08-31T12:29:33;4.53;;;1.65;;
49193;SDS011;35029;50.804;12.866;2023-08-31T12:31:59;4.35;;;1.98;;
49193;SDS011;35029;50.804;12.866;2023-08-31T12:34:24;3.92;;;1.80;;
49193;SDS011;35029;50.804;12.866;2023-08-31T12:36:51;2.58;;;1.88;;
49193;SDS011;35029;50.804;12.866;2023-08-31T12:39:17;2.95;;;1.83;;
49193;SDS011;35029;50.804;12.866;2023-08-31T12:41:43;3.63;;;2.00;;
49193;SDS011;35029;50.804;12.866;2023-08-31T12:44:09;3.28;;;2.25;;
49193;SDS011;35029;50.804;12.866;2023-08-31T12:46:34;4.68;;;2.13;;
49193;SDS011;35029;50.804;12.866;2023-08-31T12:49:00;4.05;;;1.73;;
49193;SDS011;35029;50.804;12.866;2023-08-31T12:51:28;2.70;;;1.83;;
49193;SDS011;35029;50.804;12.866;2023-08-31T12:53:57;4.07;;;1.90;;
49193;SDS011;35029;50.804;12.866;2023-08-31T12:56:22;3.53;;;1.98;;
49193;SDS011;35029;50.804;12.866;2023-08-31T12:58:49;2.22;;;1.88;;
49193;SDS011;35029;50.804;12.866;2023-08-31T13:01:18;2.70;;;1.70;;
49193;SDS011;35029;50.804;12.866;2023-08-31T13:03:44;2.33;;;1.50;;
49193;SDS011;35029;50.804;12.866;2023-08-31T13:06:14;3.72;;;1.90;;
49193;SDS011;35029;50.804;12.866;2023-08-31T13:08:41;6.05;;;1.92;;
49193;SDS011;35029;50.804;12.866;2023-08-31T13:11:08;3.38;;;2.00;;
49193;SDS011;35029;50.804;12.866;2023-08-31T13:13:34;2.15;;;1.75;;
49193;SDS011;35029;50.804;12.866;2023-08-31T13:16:00;4.43;;;1.67;;
49193;SDS011;35029;50.804;12.866;2023-08-31T13:18:25;1.95;;;1.63;;
49193;SDS011;35029;50.804;12.866;2023-08-31T13:20:54;2.63;;;2.13;;
49193;SDS011;35029;50.804;12.866;2023-08-31T13:23:20;3.40;;;1.83;;
49193;SDS011;35029;50.804;12.866;2023-08-31T13:25:47;3.80;;;1.63;;
49193;SDS011;35029;50.804;12.866;2023-08-31T13:28:13;4.00;;;1.70;;
49193;SDS011;35029;50.804;12.866;2023-08-31T13:30:39;2.47;;;1.70;;
49193;SDS011;35029;50.804;12.866;2023-08-31T13:33:06;3.42;;;1.80;;
49193;SDS011;35029;50.804;12.866;2023-08-31T13:35:32;4.20;;;1.85;;
49193;SDS011;35029;50.804;12.866;2023-08-31T13:37:58;3.33;;;1.45;;
49193;SDS011;35029;50.804;12.866;2023-08-31T13:40:24;4.13;;;1.40;;
49193;SDS011;35029;50.804;12.866;2023-08-31T13:42:53;2.80;;;1.52;;
49193;SDS011;35029;50.804;12.866;2023-08-31T13:45:24;2.63;;;1.55;;
49193;SDS011;35029;50.804;12.866;2023-08-31T13:47:51;3.38;;;1.50;;
49193;SDS011;35029;50.804;12.866;2023-08-31T13:50:16;3.70;;;1.60;;
49193;SDS011;35029;50.804;12.866;2023-08-31T13:52:42;2.88;;;1.50;;
49193;SDS011;35029;50.804;12.866;2023-08-31T13:55:08;2.03;;;1.40;;
49193;SDS011;35029;50.804;12.866;2023-08-31T13:57:33;2.63;;;1.30;;
49193;SDS011;35029;50.804;12.866;2023-08-31T13:59:59;4.20;;;1.40;;
49193;SDS011;35029;50.804;12.866;2023-08-31T14:02:25;3.22;;;1.25;;
49193;SDS011;35029;50.804;12.866;2023-08-31T14:04:51;1.48;;;1.38;;
49193;SDS011;35029;50.804;12.866;2023-08-31T14:07:17;4.28;;;1.77;;
49193;SDS011;35029;50.804;12.866;2023-08-31T14:09:42;4.57;;;1.50;;
49193;SDS011;35029;50.804;12.866;2023-08-31T14:12:08;2.78;;;1.40;;
49193;SDS011;35029;50.804;12.866;2023-08-31T14:14:34;2.42;;;1.30;;
49193;SDS011;35029;50.804;12.866;2023-08-31T14:17:00;3.03;;;1.75;;
49193;SDS011;35029;50.804;12.866;2023-08-31T14:19:25;2.35;;;1.50;;
49193;SDS011;35029;50.804;12.866;2023-08-31T14:21:51;2.22;;;1.38;;
49193;SDS011;35029;50.804;12.866;2023-08-31T14:24:18;2.63;;;1.17;;
49193;SDS011;35029;50.804;12.866;2023-08-31T14:26:44;4.72;;;1.70;;
49193;SDS011;35029;50.804;12.866;2023-08-31T14:29:10;2.63;;;1.48;;
49193;SDS011;35029;50.804;12.866;2023-08-31T14:31:37;2.53;;;1.50;;
49193;SDS011;35029;50.804;12.866;2023-08-31T14:34:03;2.92;;;1.48;;
49193;SDS011;35029;50.804;12.866;2023-08-31T14:36:28;1.70;;;1.33;;
49193;SDS011;35029;50.804;12.866;2023-08-31T14:38:54;1.65;;;1.38;;
49193;SDS011;35029;50.804;12.866;2023-08-31T14:41:20;2.28;;;1.25;;
49193;SDS011;35029;50.804;12.866;2023-08-31T14:43:45;5.13;;;1.45;;
49193;SDS011;35029;50.804;12.866;2023-08-31T14:46:11;3.20;;;1.58;;
49193;SDS011;35029;50.804;12.866;2023-08-31T14:48:36;3.28;;;1.52;;
49193;SDS011;35029;50.804;12.866;2023-08-31T14:51:02;2.45;;;1.60;;